Main page
METAR-TAF:

METAR-TAF

Airports :

Agadir–Al Massira Airport

Agadir, Morocco

latitude: 30-20N, longitude: 009-24W, elevation: 74 m

Current weather observation

The report was made 24 minutes ago, at 16:00 UTC
Wind 11 kt from the West/Northwest
Temperature 24°C
Humidity 25%
Pressure 1018 hPa
Visibility 10 km or more
no clouds below 1500 m and no cumulonimbus

METAR: GMAD 231600Z 29011KT CAVOK 24/03 Q1018 NOSIG

Time: 17:24 (16:24 UTC)

Forecast

The report was made 5 hours and 24 minutes ago, at 11:00 UTC
Forecast valid from 23 at 12 UTC to 24 at 18 UTC
Wind 12 kt from the West
Visibility 10 km or more
no clouds below 1500 m and no cumulonimbus
Becoming
from 23 at 19 UTC to 23 at 22 UTC
Wind 6 kt from the East
Becoming
from 24 at 12 UTC to 24 at 14 UTC
Wind 12 kt from the West

TAF: GMAD 231100Z 2312/2418 28012KT CAVOK BECMG 2319/2322 08006KT BECMG 2412/2414 28012KT

Weather observations and forecasts of more than 4000 airports (METAR and TAF reports).

The available stations are represented by yellow and red dots on the map.

Hover mouse over dot to see the name of the station.

Then click to see weather observations and forecasts.

To change the map : click on the green buttons with a black cross to zoom in, on the green button with a dash to zoom out, or on the green arrows for adjacent maps.


METAR-TAF: